Time;durP1;ratioP1;P1;durP2;ratioP2;P2;SDS_P1;SDS_P2;PMS_P1;PMS_P2;Temp;Humidity;BMP_temperature;BMP_pressure;BME280_temperature;BME280_humidity;BME280_pressure;Samples;Min_cycle;Max_cycle;Signal;HPM_P1;HPM_P2
2022/11/24 00:00:19;;;;;;;;;8.33;5.00;;;;;10.49;72.89;100391.19;5099814;27;45475;-57
2022/11/24 00:02:45;;;;;;;;;4.00;2.67;;;;;10.51;72.72;100404.38;5100227;27;45294;-53
2022/11/24 00:05:10;;;;;;;;;7.33;3.00;;;;;10.51;72.64;100389.25;5098979;27;45478;-55
2022/11/24 00:07:35;;;;;;;;;12.00;5.00;;;;;10.53;72.67;100405.88;5099724;27;46233;-54
2022/11/24 00:10:01;;;;;;;;;1.33;1.33;;;;;10.54;72.87;100396.09;5099740;27;45320;-55
2022/11/24 00:12:26;;;;;;;;;5.67;1.00;;;;;10.53;72.48;100392.56;5099563;27;45402;-56
2022/11/24 00:14:52;;;;;;;;;7.33;4.33;;;;;10.50;72.84;100384.91;5100103;27;45386;-53
2022/11/24 00:17:17;;;;;;;;;5.33;2.00;;;;;10.58;72.56;100403.59;5099741;27;45288;-57
2022/11/24 00:19:42;;;;;;;;;11.67;3.00;;;;;10.60;72.69;100398.94;5099463;27;45329;-56
2022/11/24 00:22:08;;;;;;;;;7.33;4.33;;;;;10.61;72.71;100405.94;5099769;27;45283;-56
2022/11/24 00:24:33;;;;;;;;;4.33;2.00;;;;;10.60;72.77;100404.25;5099880;27;45267;-54
2022/11/24 00:26:58;;;;;;;;;8.00;3.33;;;;;10.63;72.68;100405.78;5099680;27;46223;-56
2022/11/24 00:29:24;;;;;;;;;2.33;2.00;;;;;10.64;72.72;100392.31;5099375;27;45395;-56
2022/11/24 00:31:49;;;;;;;;;6.00;1.00;;;;;10.62;72.39;100389.00;5098143;27;45435;-54
2022/11/24 00:34:14;;;;;;;;;6.00;3.00;;;;;10.68;72.44;100387.53;5099681;27;45307;-56
2022/11/24 00:36:41;;;;;;;;;3.67;3.00;;;;;10.68;72.34;100375.06;5099240;27;45835;-56
2022/11/24 00:39:10;;;;;;;;;2.00;2.00;;;;;10.70;72.27;100378.41;5099459;27;45508;-55
2022/11/24 00:41:36;;;;;;;;;9.67;3.00;;;;;10.64;72.46;100360.41;5099394;27;45241;-56
2022/11/24 00:44:02;;;;;;;;;7.33;3.33;;;;;10.68;72.41;100366.25;5099333;27;45426;-57
2022/11/24 00:46:28;;;;;;;;;4.67;2.00;;;;;10.75;72.10;100346.00;5098890;27;45367;-49
2022/11/24 00:48:54;;;;;;;;;5.67;2.00;;;;;10.78;71.72;100360.81;5099022;27;45428;-56
2022/11/24 00:51:22;;;;;;;;;3.67;1.00;;;;;10.71;71.60;100340.16;5099248;27;45417;-55
2022/11/24 00:53:48;;;;;;;;;4.67;2.00;;;;;10.79;71.55;100346.50;5099226;27;45525;-52
2022/11/24 00:56:13;;;;;;;;;9.00;3.00;;;;;10.82;71.33;100347.03;5098618;27;45816;-56
2022/11/24 00:58:39;;;;;;;;;4.33;3.00;;;;;10.82;71.33;100355.00;5099176;27;45243;-52
2022/11/24 01:01:11;;;;;;;;;2.33;2.33;;;;;10.87;71.17;100342.09;5099069;27;45384;-56
2022/11/24 01:03:37;;;;;;;;;3.00;1.33;;;;;10.87;70.76;100302.19;5099264;27;45327;-56
2022/11/24 01:06:18;;;;;;;;;2.33;1.00;;;;;10.88;70.53;100345.59;5098689;27;46082;-56
2022/11/24 01:08:45;;;;;;;;;2.00;2.00;;;;;10.91;70.31;100355.88;5098998;27;45348;-56
2022/11/24 01:11:17;;;;;;;;;5.33;1.00;;;;;10.93;70.27;100357.41;5098807;27;45512;-56
2022/11/24 01:13:46;;;;;;;;;3.00;0.00;;;;;10.95;69.64;100368.72;5098956;27;45394;-56
2022/11/24 01:16:14;;;;;;;;;1.00;0.00;;;;;10.97;69.31;100364.09;5098511;27;45699;-55
2022/11/24 01:18:39;;;;;;;;;2.00;0.33;;;;;10.97;69.42;100373.91;5098475;27;45334;-56
2022/11/24 01:21:04;;;;;;;;;2.67;0.33;;;;;10.99;69.03;100375.41;5098953;27;45206;-63
2022/11/24 01:23:31;;;;;;;;;2.67;1.00;;;;;11.01;68.54;100391.22;5098995;27;45522;-54
2022/11/24 01:25:56;;;;;;;;;2.00;0.00;;;;;11.00;68.80;100397.56;5097778;27;46083;-56
2022/11/24 01:28:21;;;;;;;;;3.33;1.00;;;;;10.89;68.32;100384.50;5098477;27;45456;-53
2022/11/24 01:30:59;;;;;;;;;4.33;2.00;;;;;10.97;68.56;100405.84;5098422;27;45472;-51
2022/11/24 01:33:24;;;;;;;;;1.67;0.33;;;;;10.98;68.06;100413.66;5098667;27;45420;-55
2022/11/24 01:35:50;;;;;;;;;4.00;0.33;;;;;10.97;67.84;100408.50;5098333;27;45383;-54
2022/11/24 01:38:15;;;;;;;;;1.00;1.00;;;;;10.94;68.14;100425.59;5098426;27;45426;-56
2022/11/24 01:40:40;;;;;;;;;6.00;0.00;;;;;10.93;67.98;100418.63;5098500;27;45473;-51
2022/11/24 01:43:20;;;;;;;;;3.00;2.00;;;;;10.92;67.89;100432.09;5098563;27;45395;-53
2022/11/24 01:45:46;;;;;;;;;2.00;0.00;;;;;10.93;67.96;100436.41;5097976;27;46212;-50
2022/11/24 01:48:36;;;;;;;;;0.00;0.00;;;;;10.91;68.13;100441.91;5098359;27;45509;-53
2022/11/24 01:51:09;;;;;;;;;1.00;1.00;;;;;10.89;68.19;100445.72;5098235;27;45464;-53
2022/11/24 01:53:36;;;;;;;;;1.67;1.00;;;;;10.84;68.35;100443.53;5098430;27;45371;-54
2022/11/24 01:56:04;;;;;;;;;1.00;1.00;;;;;10.86;68.03;100461.97;5098244;27;45476;-52
2022/11/24 01:58:31;;;;;;;;;1.00;1.00;;;;;10.83;68.83;100456.97;5098642;27;45320;-51
2022/11/24 02:00:56;;;;;;;;;1.00;0.00;;;;;10.79;68.76;100452.94;5098449;27;45394;-57
2022/11/24 02:03:27;;;;;;;;;0.67;0.33;;;;;10.78;69.16;100464.56;5098328;27;45488;-58
2022/11/24 02:05:58;;;;;;;;;2.00;1.00;;;;;10.74;69.02;100464.91;5098655;27;46219;-57
2022/11/24 02:08:27;;;;;;;;;3.67;1.67;;;;;10.76;69.19;100477.22;5098160;27;45369;-56
2022/11/24 02:10:53;;;;;;;;;1.00;1.00;;;;;10.72;69.54;100484.66;5098374;27;45325;-54
2022/11/24 02:13:21;;;;;;;;;0.67;0.00;;;;;10.73;69.63;100487.16;5098627;27;45370;-53
2022/11/24 02:15:47;;;;;;;;;0.67;0.00;;;;;10.72;69.71;100489.97;5097889;27;46359;-53
2022/11/24 02:18:12;;;;;;;;;0.33;0.00;;;;;10.70;70.03;100490.16;5097783;27;45408;-51
2022/11/24 02:20:38;;;;;;;;;1.00;0.00;;;;;10.69;70.14;100501.75;5097895;27;45498;-48
2022/11/24 02:23:23;;;;;;;;;1.00;0.00;;;;;10.69;70.19;100509.72;5097832;27;45310;-53
2022/11/24 02:26:08;;;;;;;;;0.67;0.00;;;;;10.67;70.04;100502.91;5097484;27;46390;-47
2022/11/24 02:28:34;;;;;;;;;0.00;0.00;;;;;10.65;70.04;100515.53;5097377;27;45340;-56
2022/11/24 02:30:59;;;;;;;;;4.67;1.00;;;;;10.64;70.06;100512.03;5097623;27;45448;-46
2022/11/24 02:33:25;;;;;;;;;2.00;0.00;;;;;10.54;70.49;100508.63;5097802;27;45412;-54
2022/11/24 02:35:52;;;;;;;;;0.33;0.00;;;;;10.63;70.34;100526.31;5097378;27;45523;-47
2022/11/24 02:38:17;;;;;;;;;2.00;1.00;;;;;10.60;70.39;100539.09;5097570;27;45398;-52
2022/11/24 02:40:47;;;;;;;;;3.00;0.33;;;;;10.61;71.16;100538.09;5097496;27;45291;-57
2022/11/24 02:43:18;;;;;;;;;1.67;0.00;;;;;10.48;71.03;100522.50;5097698;27;45337;-53
2022/11/24 02:45:43;;;;;;;;;2.00;1.00;;;;;10.56;71.19;100543.03;5096945;27;47633;-47
2022/11/24 02:48:09;;;;;;;;;0.00;0.00;;;;;10.56;71.41;100562.50;5095630;27;45320;-52
2022/11/24 02:50:34;;;;;;;;;0.00;0.00;;;;;10.57;71.30;100569.47;5097610;27;45194;-47
2022/11/24 02:52:59;;;;;;;;;1.67;1.00;;;;;10.57;71.55;100566.81;5097506;27;45321;-48
2022/11/24 02:55:25;;;;;;;;;2.00;1.00;;;;;10.59;71.75;100572.00;5097452;27;46116;-53
2022/11/24 02:57:50;;;;;;;;;0.67;0.67;;;;;10.57;71.99;100569.47;5097252;27;45283;-51
2022/11/24 03:00:16;;;;;;;;;0.33;0.33;;;;;10.56;71.96;100575.78;5097337;27;45420;-46
2022/11/24 03:02:42;;;;;;;;;1.00;1.00;;;;;10.55;72.09;100576.78;5097459;27;45347;-44
2022/11/24 03:05:08;;;;;;;;;3.00;1.00;;;;;10.52;72.12;100571.75;5097155;27;45314;-52
2022/11/24 03:07:33;;;;;;;;;3.00;1.00;;;;;10.51;72.26;100575.41;5097242;27;45424;-56
2022/11/24 03:09:59;;;;;;;;;1.33;0.67;;;;;10.52;71.95;100595.69;5097216;27;45275;-47
2022/11/24 03:12:24;;;;;;;;;2.67;1.00;;;;;10.47;72.53;100598.81;5097189;27;45583;-56
2022/11/24 03:14:49;;;;;;;;;5.33;0.00;;;;;10.46;72.91;100602.47;5096882;27;47142;-49
2022/11/24 03:17:15;;;;;;;;;5.00;3.00;;;;;10.47;72.70;100617.41;5096858;27;45374;-50
2022/11/24 03:19:40;;;;;;;;;6.00;2.00;;;;;10.48;73.04;100629.72;5097212;27;45350;-53
2022/11/24 03:22:06;;;;;;;;;1.00;1.00;;;;;10.48;73.13;100627.06;5097218;27;45328;-48
2022/11/24 03:24:31;;;;;;;;;5.33;1.00;;;;;10.47;72.83;100630.72;5096597;27;46366;-51
2022/11/24 03:26:56;;;;;;;;;1.67;1.00;;;;;10.46;73.07;100625.56;5097102;27;45247;-47
2022/11/24 03:29:21;;;;;;;;;0.00;0.00;;;;;10.44;73.38;100627.50;5097101;27;45409;-47
2022/11/24 03:31:47;;;;;;;;;2.00;2.00;;;;;10.44;73.41;100630.16;5095826;27;45364;-43
2022/11/24 03:34:12;;;;;;;;;1.00;1.00;;;;;10.43;73.08;100629.34;5096533;27;45999;-55
2022/11/24 03:36:38;;;;;;;;;2.33;1.00;;;;;10.43;73.20;100626.69;5096776;27;45231;-55
2022/11/24 03:39:03;;;;;;;;;2.00;0.00;;;;;10.42;73.03;100616.19;5097008;27;45291;-53
2022/11/24 03:41:28;;;;;;;;;5.67;2.00;;;;;10.41;73.16;100641.13;5096880;27;45444;-45
2022/11/24 03:43:54;;;;;;;;;1.00;1.00;;;;;10.40;73.30;100626.97;5096646;27;47155;-44
2022/11/24 03:46:19;;;;;;;;;1.67;1.67;;;;;10.40;73.32;100632.28;5096297;27;45189;-46
2022/11/24 03:48:44;;;;;;;;;0.00;0.00;;;;;10.41;73.12;100628.66;5099493;27;45299;-58
2022/11/24 03:51:10;;;;;;;;;1.00;1.00;;;;;10.39;73.19;100624.47;5101369;27;45316;-54
2022/11/24 03:53:35;;;;;;;;;1.33;1.00;;;;;10.40;73.02;100628.78;5100369;27;46086;-55
2022/11/24 03:56:02;;;;;;;;;2.33;2.00;;;;;10.38;73.22;100620.97;5100147;27;45330;-56
2022/11/24 03:58:28;;;;;;;;;5.33;1.00;;;;;10.39;73.24;100633.28;5100240;27;45272;-54
2022/11/24 04:00:54;;;;;;;;;6.00;1.67;;;;;10.38;73.15;100636.94;5099999;27;45590;-52
2022/11/24 04:03:20;;;;;;;;;3.00;1.00;;;;;10.37;73.01;100634.44;5099790;27;46244;-53
2022/11/24 04:05:46;;;;;;;;;3.00;1.00;;;;;10.37;72.98;100647.72;5099821;27;45255;-56
2022/11/24 04:08:13;;;;;;;;;1.67;0.33;;;;;10.36;73.02;100646.03;5099905;27;45232;-43
2022/11/24 04:10:38;;;;;;;;;2.33;2.33;;;;;10.26;72.92;100647.91;5100118;27;45278;-55
2022/11/24 04:13:13;;;;;;;;;2.00;2.00;;;;;10.31;73.17;100650.97;5099361;27;46055;-53
2022/11/24 04:15:39;;;;;;;;;3.00;2.00;;;;;10.32;73.28;100663.25;5099789;27;45187;-51
2022/11/24 04:18:06;;;;;;;;;5.67;2.00;;;;;10.32;72.91;100657.94;5099639;27;45423;-55
2022/11/24 04:20:32;;;;;;;;;2.00;1.00;;;;;10.30;73.24;100662.59;5099895;27;45247;-55
2022/11/24 04:22:57;;;;;;;;;1.00;1.00;;;;;10.28;73.13;100667.19;5099400;27;45393;-48
2022/11/24 04:25:22;;;;;;;;;1.00;0.00;;;;;10.25;73.37;100671.00;5099533;27;45755;-54
2022/11/24 04:27:52;;;;;;;;;0.67;0.67;;;;;10.17;73.27;100668.19;5099678;27;45441;-43
2022/11/24 04:30:19;;;;;;;;;11.33;2.33;;;;;10.23;73.74;100686.22;5099608;27;45406;-44
2022/11/24 04:32:45;;;;;;;;;1.67;0.67;;;;;10.20;73.66;100670.56;5099285;27;46064;-53
2022/11/24 04:35:11;;;;;;;;;2.00;0.00;;;;;10.13;73.50;100672.13;5099446;27;45222;-45
2022/11/24 04:37:36;;;;;;;;;5.00;1.00;;;;;10.13;73.57;100674.78;5099498;27;45519;-51
2022/11/24 04:40:02;;;;;;;;;1.00;1.00;;;;;10.20;73.73;100691.84;5099584;27;45498;-56
2022/11/24 04:42:28;;;;;;;;;3.00;1.67;;;;;10.17;73.50;100700.94;5099107;27;46934;-44
2022/11/24 04:44:53;;;;;;;;;5.33;2.00;;;;;10.15;73.68;100699.38;5098881;27;45330;-44
2022/11/24 04:47:24;;;;;;;;;3.67;1.00;;;;;10.03;73.69;100692.56;5099296;27;45406;-50
2022/11/24 04:49:50;;;;;;;;;8.33;1.00;;;;;10.10;73.72;100697.16;5099446;27;45306;-52
2022/11/24 04:52:18;;;;;;;;;0.00;0.00;;;;;10.09;73.64;100703.47;5098878;27;46185;-51
2022/11/24 04:54:43;;;;;;;;;2.00;0.67;;;;;10.06;73.56;100703.75;5098785;27;45332;-48
2022/11/24 04:57:18;;;;;;;;;3.00;1.33;;;;;10.05;73.71;100714.53;5099069;27;45358;-56
2022/11/24 04:59:44;;;;;;;;;1.00;1.00;;;;;10.02;73.88;100710.34;5098152;27;45518;-56
2022/11/24 05:02:09;;;;;;;;;3.67;2.67;;;;;10.03;73.84;100722.66;5098751;27;46171;-51
2022/11/24 05:04:34;;;;;;;;;9.67;3.00;;;;;10.03;73.43;100730.66;5098877;27;45353;-54
2022/11/24 05:07:00;;;;;;;;;3.00;1.00;;;;;10.01;73.75;100719.31;5099180;27;45268;-50
2022/11/24 05:09:25;;;;;;;;;6.33;2.00;;;;;10.01;73.71;100737.91;5098941;27;45465;-51
2022/11/24 05:11:50;;;;;;;;;1.33;1.00;;;;;9.98;73.61;100728.38;5098590;27;46005;-53
2022/11/24 05:14:16;;;;;;;;;1.00;1.00;;;;;9.98;74.08;100738.19;5098640;27;45319;-53
2022/11/24 05:16:41;;;;;;;;;2.00;1.00;;;;;9.96;73.65;100729.53;5098701;27;45285;-53
2022/11/24 05:19:07;;;;;;;;;2.33;1.00;;;;;9.92;73.61;100723.66;5098871;27;45388;-43
2022/11/24 05:21:32;;;;;;;;;2.00;1.00;;;;;9.95;73.86;100726.03;5097194;27;47063;-46
2022/11/24 05:23:58;;;;;;;;;1.33;0.67;;;;;9.92;73.83;100728.97;5098609;27;45499;-44
2022/11/24 05:26:23;;;;;;;;;3.00;1.00;;;;;9.94;74.04;100731.47;5098745;27;45413;-52
2022/11/24 05:28:48;;;;;;;;;5.00;1.00;;;;;9.94;73.89;100742.09;5098872;27;45327;-55
2022/11/24 05:31:14;;;;;;;;;0.67;0.00;;;;;9.85;73.92;100721.72;5098454;27;46004;-52
2022/11/24 05:33:39;;;;;;;;;3.67;1.00;;;;;9.91;73.63;100731.78;5098296;27;45235;-46
2022/11/24 05:36:06;;;;;;;;;2.00;2.00;;;;;9.91;73.89;100737.09;5098525;27;45329;-45
2022/11/24 05:38:32;;;;;;;;;1.00;1.00;;;;;9.91;74.12;100739.75;5098579;27;45460;-44
2022/11/24 05:41:04;;;;;;;;;5.67;1.67;;;;;9.84;73.93;100728.84;5098188;27;45443;-55
2022/11/24 05:43:30;;;;;;;;;4.33;1.00;;;;;9.90;73.63;100741.59;5098184;27;45416;-55
2022/11/24 05:45:59;;;;;;;;;1.67;1.00;;;;;9.88;73.83;100743.53;5097688;27;45500;-53
2022/11/24 05:48:25;;;;;;;;;5.67;1.00;;;;;9.87;73.94;100738.38;5098425;27;45424;-56
2022/11/24 05:50:55;;;;;;;;;4.33;1.67;;;;;9.86;73.82;100764.09;5098112;27;46217;-51
2022/11/24 05:53:20;;;;;;;;;1.67;1.00;;;;;9.85;74.15;100754.44;5098019;27;45408;-56
2022/11/24 05:55:45;;;;;;;;;6.00;1.67;;;;;9.83;74.25;100756.41;5098277;27;45589;-53
2022/11/24 05:58:11;;;;;;;;;0.33;0.00;;;;;9.84;74.68;100765.22;5098515;27;45421;-56
2022/11/24 06:00:36;;;;;;;;;1.33;1.33;;;;;9.83;74.41;100759.06;5096397;27;47282;-45
2022/11/24 06:03:02;;;;;;;;;0.00;0.00;;;;;9.83;74.70;100763.53;5098161;27;45311;-54
2022/11/24 06:05:29;;;;;;;;;1.00;1.00;;;;;9.82;74.62;100765.34;5098086;27;45323;-52
2022/11/24 06:07:54;;;;;;;;;4.33;2.00;;;;;9.82;74.39;100764.50;5098211;27;45436;-45
2022/11/24 06:10:22;;;;;;;;;6.00;2.00;;;;;9.81;74.23;100774.28;5097366;27;45406;-53
2022/11/24 06:12:48;;;;;;;;;1.67;1.00;;;;;9.80;74.19;100766.47;5097547;27;45512;-44
2022/11/24 06:15:13;;;;;;;;;2.33;1.00;;;;;9.79;74.66;100767.47;5097984;27;45487;-52
2022/11/24 06:17:39;;;;;;;;;1.33;1.33;;;;;9.67;74.72;100756.97;5098002;27;45187;-47
2022/11/24 06:20:06;;;;;;;;;3.00;2.00;;;;;9.69;74.57;100762.13;5097675;27;46246;-53
2022/11/24 06:22:31;;;;;;;;;2.33;0.33;;;;;9.75;74.95;100781.00;5097649;27;45371;-52
2022/11/24 06:24:57;;;;;;;;;1.00;1.00;;;;;9.74;74.55;100784.66;5097882;27;45430;-54
2022/11/24 06:27:22;;;;;;;;;6.00;2.67;;;;;9.73;74.75;100784.78;5097953;27;45344;-45
2022/11/24 06:29:48;;;;;;;;;2.00;1.33;;;;;9.73;75.11;100788.28;5097434;27;46378;-51
2022/11/24 06:32:13;;;;;;;;;1.67;0.33;;;;;9.71;74.82;100790.25;5097368;27;45416;-46
2022/11/24 06:34:39;;;;;;;;;6.67;2.00;;;;;9.73;74.70;100796.28;5097592;27;45553;-46
2022/11/24 06:37:05;;;;;;;;;6.00;2.00;;;;;9.72;74.84;100791.91;5097718;27;45479;-46
2022/11/24 06:39:30;;;;;;;;;1.00;1.00;;;;;9.73;75.24;100795.41;5097531;27;46132;-46
2022/11/24 06:41:56;;;;;;;;;7.33;2.00;;;;;9.72;75.36;100791.91;5096135;27;45431;-54
2022/11/24 06:44:21;;;;;;;;;3.67;1.00;;;;;9.72;75.07;100791.91;5097640;27;45375;-51
2022/11/24 06:46:47;;;;;;;;;2.00;2.00;;;;;9.70;75.12;100799.19;5097611;27;45404;-51
2022/11/24 06:49:12;;;;;;;;;3.67;1.33;;;;;9.71;75.45;100810.66;5097125;27;47233;-47
2022/11/24 06:51:38;;;;;;;;;1.00;1.00;;;;;9.71;75.53;100821.28;5097403;27;45215;-56
2022/11/24 06:54:12;;;;;;;;;2.00;1.00;;;;;9.70;75.69;100828.41;5097500;27;45732;-56
2022/11/24 06:56:38;;;;;;;;;2.00;2.00;;;;;9.69;75.29;100831.19;5097650;27;45384;-56
2022/11/24 06:59:03;;;;;;;;;6.33;2.00;;;;;9.59;75.64;100822.38;5097273;27;46078;-54
2022/11/24 07:01:29;;;;;;;;;5.00;2.00;;;;;9.68;75.15;100840.97;5097217;27;45293;-56
2022/11/24 07:03:55;;;;;;;;;5.00;1.00;;;;;9.65;75.19;100838.63;5097282;27;45321;-45
2022/11/24 07:06:23;;;;;;;;;2.00;2.00;;;;;9.67;75.73;100851.75;5097728;27;45357;-46
2022/11/24 07:08:49;;;;;;;;;1.00;1.00;;;;;9.63;76.02;100856.50;5096977;27;46090;-47
2022/11/24 07:11:20;;;;;;;;;5.67;1.67;;;;;9.64;76.38;100860.81;5097052;27;45364;-45
2022/11/24 07:13:45;;;;;;;;;3.00;1.67;;;;;9.67;75.84;100865.03;5097333;27;45424;-47
2022/11/24 07:16:12;;;;;;;;;5.00;1.67;;;;;9.67;75.86;100873.00;5097664;27;45326;-49
2022/11/24 07:18:37;;;;;;;;;3.00;1.33;;;;;9.66;76.11;100866.03;5097543;27;46388;-48
2022/11/24 07:21:03;;;;;;;;;1.00;1.00;;;;;9.66;75.94;100874.81;5097955;27;45401;-46
2022/11/24 07:23:29;;;;;;;;;2.00;2.00;;;;;9.66;76.41;100877.47;5099866;27;45334;-48
2022/11/24 07:25:54;;;;;;;;;3.00;1.33;;;;;9.66;76.75;100881.97;5101657;27;45449;-49
2022/11/24 07:28:20;;;;;;;;;10.00;3.00;;;;;9.66;76.36;100882.78;5100920;27;46139;-45
2022/11/24 07:30:45;;;;;;;;;5.33;1.67;;;;;9.65;76.68;100889.09;5100609;27;45337;-47
2022/11/24 07:33:10;;;;;;;;;9.00;4.33;;;;;9.66;76.75;100896.06;5100412;27;45242;-48
2022/11/24 07:35:36;;;;;;;;;5.00;5.00;;;;;9.66;76.75;100889.94;5100795;27;45404;-48
2022/11/24 07:38:01;;;;;;;;;6.00;4.33;;;;;9.68;76.93;100895.94;5100453;27;46272;-48
2022/11/24 07:40:26;;;;;;;;;5.50;5.00;;;;;9.67;76.25;100887.13;5100300;27;45522;-46
2022/11/24 07:42:53;;;;;;;;;6.67;3.00;;;;;9.63;76.25;100891.03;5100300;27;45270;-44
2022/11/24 07:45:18;;;;;;;;;8.67;5.00;;;;;9.65;76.95;100885.56;5100459;27;45491;-46
2022/11/24 07:47:44;;;;;;;;;7.00;6.00;;;;;9.64;76.96;100887.38;5100288;27;47182;-49
2022/11/24 07:50:10;;;;;;;;;12.00;6.33;;;;;9.63;76.77;100892.84;5100040;27;45245;-45
2022/11/24 07:52:36;;;;;;;;;12.67;3.00;;;;;9.64;76.60;100899.84;5100144;27;45248;-45
2022/11/24 07:55:01;;;;;;;;;5.33;5.33;;;;;9.62;77.26;100907.13;5100400;27;45619;-47
2022/11/24 07:57:29;;;;;;;;;11.00;6.00;;;;;9.62;76.91;100910.59;5099978;27;45877;-44
2022/11/24 07:59:55;;;;;;;;;8.00;5.00;;;;;9.61;77.35;100913.41;5100062;27;45395;-47
2022/11/24 08:02:20;;;;;;;;;5.67;3.00;;;;;9.66;77.09;100929.78;5100187;27;45337;-46
2022/11/24 08:04:45;;;;;;;;;12.33;5.00;;;;;9.69;77.05;100929.47;5100128;27;45420;-45
2022/11/24 08:07:11;;;;;;;;;7.33;5.00;;;;;9.73;77.18;100936.19;5100057;27;45382;-47
2022/11/24 08:09:36;;;;;;;;;10.33;6.67;;;;;9.74;77.19;100933.41;5098510;27;45332;-46
2022/11/24 08:12:02;;;;;;;;;2.00;2.00;;;;;9.79;76.52;100938.31;5099985;27;45661;-47
2022/11/24 08:14:27;;;;;;;;;6.00;2.50;;;;;9.80;76.88;100932.03;5100038;27;45446;-45
2022/11/24 08:16:53;;;;;;;;;8.33;5.00;;;;;9.79;77.22;100927.69;5099647;27;46035;-46
2022/11/24 08:19:18;;;;;;;;;7.33;6.00;;;;;9.90;76.59;100938.22;5099955;27;45316;-46
2022/11/24 08:21:43;;;;;;;;;9.00;4.33;;;;;9.86;77.13;100933.28;5100077;27;45387;-45
2022/11/24 08:24:09;;;;;;;;;7.00;7.00;;;;;9.93;76.70;100953.03;5100241;27;45235;-44
2022/11/24 08:26:34;;;;;;;;;9.00;5.00;;;;;9.97;76.38;100955.25;5099852;27;47020;-46
2022/11/24 08:29:00;;;;;;;;;7.67;5.00;;;;;9.98;76.34;100962.25;5099590;27;45404;-46
2022/11/24 08:31:31;;;;;;;;;7.67;4.33;;;;;10.01;76.75;100966.47;5099866;27;45245;-45
2022/11/24 08:33:57;;;;;;;;;4.33;4.33;;;;;10.05;76.88;100965.22;5099571;27;45281;-45
2022/11/24 08:36:22;;;;;;;;;6.00;6.00;;;;;10.09;76.57;100963.13;5099432;27;46000;-44
2022/11/24 08:38:53;;;;;;;;;4.33;4.33;;;;;10.10;76.45;100964.78;5100008;27;45309;-46
2022/11/24 08:41:19;;;;;;;;;6.33;6.00;;;;;10.15;76.73;100970.53;5100103;27;45279;-43
2022/11/24 08:43:44;;;;;;;;;5.33;5.33;;;;;10.18;76.41;100971.09;5100083;27;45375;-47
2022/11/24 08:46:12;;;;;;;;;5.33;3.67;;;;;10.23;76.07;100976.00;5099524;27;45934;-46
2022/11/24 08:48:38;;;;;;;;;6.00;5.00;;;;;10.23;76.15;100976.84;5099627;27;45355;-44
2022/11/24 08:51:12;;;;;;;;;9.33;6.00;;;;;10.26;76.04;100975.75;5099176;27;45223;-46
2022/11/24 08:53:39;;;;;;;;;3.67;3.00;;;;;10.31;76.17;100972.69;5099533;27;45457;-48
2022/11/24 08:56:06;;;;;;;;;6.00;3.67;;;;;10.30;75.97;100974.50;5098908;27;46254;-46
2022/11/24 08:58:32;;;;;;;;;9.00;6.00;;;;;10.33;76.26;100976.91;5099184;27;45433;-48
2022/11/24 09:01:06;;;;;;;;;10.00;8.00;;;;;10.40;76.38;100969.19;5098930;27;45287;-46
2022/11/24 09:03:33;;;;;;;;;5.67;3.00;;;;;10.47;76.16;100975.63;5099237;27;45367;-46
2022/11/24 09:05:58;;;;;;;;;4.67;3.00;;;;;10.51;75.87;100977.03;5098965;27;46388;-48
2022/11/24 09:08:23;;;;;;;;;9.33;3.00;;;;;10.59;75.93;100984.31;5096815;27;45379;-46
2022/11/24 09:10:50;;;;;;;;;9.00;2.00;;;;;10.70;75.38;100974.38;5098906;27;45447;-46
2022/11/24 09:13:15;;;;;;;;;9.67;3.67;;;;;10.88;75.05;100976.31;5099004;27;45424;-46
2022/11/24 09:15:41;;;;;;;;;6.00;4.00;;;;;11.18;74.52;100976.06;5098393;27;47025;-46
2022/11/24 09:18:06;;;;;;;;;6.33;5.33;;;;;11.37;73.52;100974.31;5098561;27;45402;-47
2022/11/24 09:20:31;;;;;;;;;6.00;3.00;;;;;11.59;72.83;100979.28;5098635;27;45830;-50
2022/11/24 09:22:57;;;;;;;;;7.33;5.00;;;;;11.86;72.08;100980.28;5098690;27;45362;-47
2022/11/24 09:25:22;;;;;;;;;7.00;3.67;;;;;12.12;71.60;100981.25;5098576;27;46127;-45
2022/11/24 09:27:49;;;;;;;;;3.33;2.00;;;;;12.36;70.83;100977.16;5098352;27;45307;-47
2022/11/24 09:30:15;;;;;;;;;6.33;2.00;;;;;12.54;70.08;100982.47;5097824;27;45400;-45
2022/11/24 09:32:41;;;;;;;;;7.33;2.33;;;;;12.72;69.60;100980.63;5097981;27;45231;-45
2022/11/24 09:35:07;;;;;;;;;7.00;4.67;;;;;12.90;69.30;100977.94;5096870;27;46326;-45
2022/11/24 09:37:33;;;;;;;;;2.00;1.33;;;;;12.98;68.44;100972.66;5098558;27;45337;-45
2022/11/24 09:39:58;;;;;;;;;6.00;2.67;;;;;13.04;68.00;100972.00;5098580;27;45405;-46
2022/11/24 09:42:42;;;;;;;;;2.67;2.67;;;;;13.16;67.53;100970.75;5098898;27;45448;-48
2022/11/24 09:45:16;;;;;;;;;7.67;6.00;;;;;13.27;66.96;100968.84;5097585;27;45393;-46
2022/11/24 09:48:17;;;;;;;;;2.67;2.33;;;;;13.39;66.87;100965.72;5098089;27;45358;-49
2022/11/24 09:50:45;;;;;;;;;3.33;2.67;;;;;13.55;65.95;100967.63;5034837;28;45543;-46
2022/11/24 09:53:15;;;;;;;;;9.67;3.00;;;;;13.76;65.35;100969.06;5035339;28;45659;-46
2022/11/24 09:55:46;;;;;;;;;13.00;8.00;;;;;13.91;65.00;100970.97;5034895;28;45518;-45
2022/11/24 09:58:23;;;;;;;;;6.00;3.00;;;;;14.09;65.07;100968.16;5034974;28;45377;-46
2022/11/24 10:00:52;;;;;;;;;13.00;4.67;;;;;14.19;64.18;100982.22;5035115;28;45452;-44
2022/11/24 10:03:33;;;;;;;;;5.33;3.00;;;;;14.21;64.46;100982.91;5034972;28;45313;-46
2022/11/24 10:06:03;;;;;;;;;6.67;3.00;;;;;14.10;64.46;100993.91;5034878;28;47229;-44
2022/11/24 10:08:37;;;;;;;;;3.00;1.67;;;;;14.01;64.98;100992.22;5034807;28;45338;-45
2022/11/24 10:11:10;;;;;;;;;2.00;2.00;;;;;13.86;65.38;100997.34;5034962;28;45431;-45
2022/11/24 10:13:57;;;;;;;;;2.67;2.67;;;;;13.72;65.76;101000.63;5034784;28;45451;-47
2022/11/24 10:16:49;;;;;;;;;3.33;2.00;;;;;13.88;65.18;100994.50;5034574;28;45979;-45
2022/11/24 10:19:34;;;;;;;;;4.00;2.67;;;;;13.87;64.63;100982.97;5034314;28;45313;-47
2022/11/24 10:22:25;;;;;;;;;7.67;4.00;;;;;13.90;64.58;100981.81;5034722;28;45506;-46
2022/11/24 10:24:56;;;;;;;;;11.33;8.00;;;;;13.92;64.62;100972.63;5034780;28;45547;-48
2022/11/24 10:27:32;;;;;;;;;8.33;5.00;;;;;13.87;65.07;100963.44;5072247;27;45436;-45
2022/11/24 10:29:59;;;;;;;;;7.00;4.00;;;;;13.91;65.51;100968.28;5097530;27;45528;-45
2022/11/24 10:32:24;;;;;;;;;7.00;7.00;;;;;13.85;65.22;100965.41;5097446;27;45456;-48
2022/11/24 10:34:50;;;;;;;;;6.00;2.00;;;;;13.90;64.98;100953.22;5097651;27;45337;-44
2022/11/24 10:37:25;;;;;;;;;3.67;2.33;;;;;14.14;64.31;100956.97;5097509;27;46280;-46
2022/11/24 10:40:02;;;;;;;;;6.67;4.00;;;;;14.66;64.06;100959.34;5097336;27;45452;-46
2022/11/24 10:42:32;;;;;;;;;8.33;6.00;;;;;14.87;62.34;100958.84;5097543;27;45235;-47
2022/11/24 10:45:21;;;;;;;;;5.67;3.67;;;;;14.62;63.60;100949.97;5097883;27;45418;-46
2022/11/24 10:47:48;;;;;;;;;8.67;5.33;;;;;14.30;63.19;100938.25;5096980;27;46160;-47
2022/11/24 10:50:23;;;;;;;;;4.33;3.00;;;;;14.40;63.18;100946.94;5097558;27;45504;-45
2022/11/24 10:53:15;;;;;;;;;8.00;6.00;;;;;14.47;64.31;100941.78;5097350;27;45568;-46
2022/11/24 10:55:53;;;;;;;;;9.67;8.00;;;;;14.62;62.91;100936.59;5097409;27;45386;-45
2022/11/24 10:58:23;;;;;;;;;10.67;7.33;;;;;14.98;61.85;100937.91;5098455;27;45464;-49
2022/11/24 11:00:48;;;;;;;;;6.33;4.67;;;;;14.78;62.04;100936.59;5101025;27;45304;-47
2022/11/24 11:03:19;;;;;;;;;9.00;7.00;;;;;14.41;62.66;100932.59;5100660;27;45291;-49
2022/11/24 11:06:11;;;;;;;;;12.33;8.33;;;;;14.34;63.24;100930.72;5101138;27;45343;-45
2022/11/24 11:08:36;;;;;;;;;6.00;5.67;;;;;14.44;62.89;100926.88;5100708;27;47081;-45
2022/11/24 11:11:26;;;;;;;;;12.67;8.67;;;;;14.28;63.04;100916.16;5100601;27;45244;-46
2022/11/24 11:14:00;;;;;;;;;6.33;5.00;;;;;14.10;63.47;100919.00;5100959;27;45441;-47
2022/11/24 11:16:35;;;;;;;;;14.00;7.00;;;;;13.93;64.01;100911.94;5100993;27;45520;-47
2022/11/24 11:19:04;;;;;;;;;15.67;7.00;;;;;13.89;63.97;100918.63;5100306;27;45436;-48
2022/11/24 11:21:36;;;;;;;;;11.33;8.33;;;;;13.85;63.80;100910.09;5100523;27;45333;-47
2022/11/24 11:24:11;;;;;;;;;9.33;9.00;;;;;13.88;63.95;100909.78;5100812;27;45322;-45
2022/11/24 11:26:38;;;;;;;;;8.00;7.00;;;;;13.94;63.51;100905.59;5100686;27;45329;-46
2022/11/24 11:29:06;;;;;;;;;18.00;13.33;;;;;14.04;64.20;100903.63;5100218;27;46093;-46